Time;durP1;ratioP1;P1;durP2;ratioP2;P2;SDS_P1;SDS_P2;PMS_P1;PMS_P2;Temp;Humidity;BMP_temperature;BMP_pressure;BME280_temperature;BME280_humidity;BME280_pressure;Samples;Min_cycle;Max_cycle;Signal;HPM_P1;HPM_P2
2022/01/09 00:00:41;;;;;;;1.40;1.40;;;4.00;99.90;;;;;;4937365;28;20105;-64
2022/01/09 00:03:08;;;;;;;1.77;1.60;;;4.00;99.90;;;;;;4925960;29;20538;-64
2022/01/09 00:05:34;;;;;;;1.77;1.67;;;4.00;99.90;;;;;;4945753;29;20035;-64
2022/01/09 00:08:01;;;;;;;3.03;2.17;;;4.00;99.90;;;;;;4913052;29;20126;-64
2022/01/09 00:10:29;;;;;;;2.22;2.08;;;4.00;99.90;;;;;;4944809;29;20047;-64
2022/01/09 00:12:55;;;;;;;1.83;1.73;;;4.00;99.90;;;;;;4948975;28;20055;-65
2022/01/09 00:15:21;;;;;;;1.70;1.60;;;4.00;99.90;;;;;;4951573;28;20047;-65
2022/01/09 00:17:46;;;;;;;2.00;1.90;;;4.00;99.90;;;;;;4952068;29;20042;-62
2022/01/09 00:20:12;;;;;;;2.10;2.00;;;4.10;99.90;;;;;;4952702;28;20066;-62
2022/01/09 00:22:51;;;;;;;1.33;1.33;;;4.10;99.90;;;;;;4957415;28;20048;-62
2022/01/09 00:25:20;;;;;;;3.70;2.15;;;4.10;99.90;;;;;;4952512;28;20047;-62
2022/01/09 00:27:46;;;;;;;1.65;1.52;;;4.10;99.90;;;;;;4949865;28;20429;-62
2022/01/09 00:30:14;;;;;;;3.13;2.00;;;4.10;99.90;;;;;;4935079;29;20117;-63
2022/01/09 00:32:40;;;;;;;1.50;1.40;;;4.10;99.90;;;;;;4950365;29;20118;-63
2022/01/09 00:35:07;;;;;;;1.67;1.50;;;4.10;99.90;;;;;;4951357;29;20408;-63
2022/01/09 00:37:33;;;;;;;1.60;1.20;;;4.20;99.90;;;;;;4951463;28;20055;-63
2022/01/09 00:39:58;;;;;;;2.60;2.30;;;4.10;99.90;;;;;;4950913;28;20110;-63
2022/01/09 00:42:24;;;;;;;1.85;1.75;;;4.20;99.90;;;;;;4935097;29;20048;-63
2022/01/09 00:44:50;;;;;;;2.70;1.48;;;4.10;99.90;;;;;;4950083;29;20592;-62
2022/01/09 00:47:16;;;;;;;1.83;1.73;;;4.10;99.90;;;;;;4951078;29;20078;-63
2022/01/09 00:49:42;;;;;;;7.03;2.10;;;4.20;99.90;;;;;;4952479;28;20046;-62
2022/01/09 00:52:08;;;;;;;1.35;1.27;;;4.20;99.90;;;;;;4950638;29;20085;-63
2022/01/09 00:54:34;;;;;;;1.15;1.15;;;4.10;99.90;;;;;;4951139;29;20097;-62
2022/01/09 00:57:00;;;;;;;2.00;1.40;;;4.00;99.90;;;;;;4951103;29;20094;-62
2022/01/09 00:59:25;;;;;;;1.55;1.55;;;4.10;99.90;;;;;;4950209;29;20102;-62
2022/01/09 01:01:51;;;;;;;2.45;2.10;;;4.10;99.90;;;;;;4950817;28;20051;-63
2022/01/09 01:04:17;;;;;;;0.75;0.70;;;4.10;99.90;;;;;;4934503;29;20079;-62
2022/01/09 01:06:43;;;;;;;1.85;1.45;;;4.10;99.90;;;;;;4949788;29;20051;-63
2022/01/09 01:09:09;;;;;;;1.50;1.40;;;4.10;99.90;;;;;;4951987;29;20047;-63
2022/01/09 01:11:34;;;;;;;1.17;1.17;;;4.10;99.90;;;;;;4950356;28;20386;-63
2022/01/09 01:14:00;;;;;;;2.13;1.75;;;4.10;99.90;;;;;;4951380;29;20047;-63
2022/01/09 01:16:26;;;;;;;1.90;1.80;;;4.10;99.90;;;;;;4950098;29;20381;-62
2022/01/09 01:18:54;;;;;;;2.20;2.10;;;4.10;99.90;;;;;;4932644;29;20055;-62
2022/01/09 01:21:26;;;;;;;2.17;1.40;;;4.10;99.90;;;;;;4933985;29;20050;-62
2022/01/09 01:23:52;;;;;;;1.67;1.60;;;4.00;99.90;;;;;;4950117;28;20047;-62
2022/01/09 01:26:18;;;;;;;2.38;2.17;;;4.10;99.90;;;;;;4950104;29;20563;-63
2022/01/09 01:28:44;;;;;;;2.22;2.03;;;4.10;99.90;;;;;;4950018;28;20082;-62
2022/01/09 01:31:11;;;;;;;3.90;2.50;;;4.10;99.90;;;;;;4934103;29;20141;-63
2022/01/09 01:33:37;;;;;;;2.55;1.90;;;4.10;99.90;;;;;;4938075;29;20054;-63
2022/01/09 01:36:04;;;;;;;2.70;2.08;;;4.10;99.90;;;;;;4942065;29;20063;-62
2022/01/09 01:38:30;;;;;;;2.65;1.98;;;4.10;99.90;;;;;;4964715;28;20051;-63
2022/01/09 01:40:58;;;;;;;2.85;2.42;;;4.10;99.90;;;;;;4956887;28;20138;-63
2022/01/09 01:43:24;;;;;;;2.00;1.90;;;4.10;99.90;;;;;;4958839;28;20078;-63
2022/01/09 01:45:50;;;;;;;3.58;2.30;;;4.10;99.90;;;;;;4949552;29;20138;-63
2022/01/09 01:48:16;;;;;;;3.13;2.80;;;4.10;99.90;;;;;;4933460;29;20478;-63
2022/01/09 01:50:42;;;;;;;2.80;2.70;;;4.10;99.90;;;;;;4943534;28;20043;-62
2022/01/09 01:53:13;;;;;;;2.65;2.42;;;4.10;99.90;;;;;;4968719;28;20049;-63
2022/01/09 01:55:41;;;;;;;2.22;2.03;;;4.10;99.90;;;;;;4951394;28;20126;-62
2022/01/09 01:58:13;;;;;;;2.20;2.10;;;4.10;99.90;;;;;;4948438;29;20078;-62
2022/01/09 02:00:40;;;;;;;2.28;2.05;;;4.10;99.90;;;;;;4952667;28;20043;-62
2022/01/09 02:03:07;;;;;;;2.47;2.28;;;4.10;99.90;;;;;;4949285;29;20046;-63
2022/01/09 02:05:33;;;;;;;1.88;1.85;;;4.10;99.90;;;;;;4949420;29;20118;-63
2022/01/09 02:08:02;;;;;;;2.20;2.10;;;4.10;99.90;;;;;;4949651;29;20047;-63
2022/01/09 02:10:28;;;;;;;1.73;1.63;;;4.10;99.90;;;;;;4950031;29;20083;-62
2022/01/09 02:12:56;;;;;;;1.83;1.70;;;4.10;99.90;;;;;;4965790;28;20101;-62
2022/01/09 02:15:35;;;;;;;1.80;1.70;;;4.10;99.90;;;;;;4955857;28;20082;-62
2022/01/09 02:18:08;;;;;;;2.42;2.28;;;4.10;99.90;;;;;;4950478;29;20127;-63
2022/01/09 02:20:35;;;;;;;2.45;2.25;;;4.00;99.90;;;;;;4948145;29;20049;-62
2022/01/09 02:23:01;;;;;;;2.10;2.00;;;4.00;99.90;;;;;;4961393;28;20080;-63
2022/01/09 02:25:27;;;;;;;2.95;2.50;;;4.00;99.90;;;;;;4949808;29;20050;-62
2022/01/09 02:27:54;;;;;;;3.92;2.80;;;4.00;99.90;;;;;;4948832;29;20513;-63
2022/01/09 02:30:20;;;;;;;2.83;2.63;;;4.00;99.90;;;;;;4950191;29;20135;-63
2022/01/09 02:32:46;;;;;;;2.40;2.05;;;4.00;99.90;;;;;;4959348;28;20133;-63
2022/01/09 02:35:14;;;;;;;3.15;2.92;;;4.00;99.90;;;;;;4961593;28;20054;-63
2022/01/09 02:37:40;;;;;;;3.40;3.10;;;4.00;99.90;;;;;;4947112;29;20055;-63
2022/01/09 02:40:07;;;;;;;3.33;3.13;;;4.00;99.90;;;;;;4949736;29;20051;-62
2022/01/09 02:42:34;;;;;;;3.35;3.15;;;4.00;99.90;;;;;;4949260;28;20035;-62
2022/01/09 02:45:00;;;;;;;3.03;2.83;;;4.00;99.90;;;;;;4915900;29;20051;-63
2022/01/09 02:47:30;;;;;;;3.38;3.17;;;4.10;99.90;;;;;;4956228;28;20051;-63
2022/01/09 02:50:02;;;;;;;4.05;3.75;;;4.00;99.90;;;;;;4948675;29;20051;-63
2022/01/09 02:52:34;;;;;;;4.03;3.80;;;4.10;99.90;;;;;;4949079;28;20498;-63
2022/01/09 02:55:12;;;;;;;3.38;3.17;;;4.10;99.90;;;;;;4934025;29;20055;-63
2022/01/09 02:57:40;;;;;;;3.95;3.75;;;4.10;99.90;;;;;;4916250;29;20050;-63
2022/01/09 03:00:11;;;;;;;3.53;3.33;;;4.10;99.90;;;;;;4964649;28;20528;-62
2022/01/09 03:02:37;;;;;;;6.47;4.25;;;4.10;99.90;;;;;;4952763;28;20078;-62
2022/01/09 03:05:04;;;;;;;4.43;4.13;;;4.10;99.90;;;;;;4952236;28;20086;-63
2022/01/09 03:07:29;;;;;;;4.40;4.10;;;4.10;99.90;;;;;;4930812;29;20047;-63
2022/01/09 03:09:55;;;;;;;4.38;3.97;;;4.10;99.90;;;;;;4948963;29;20047;-63
2022/01/09 03:12:22;;;;;;;4.90;4.50;;;4.10;99.90;;;;;;4947197;28;20079;-63
2022/01/09 03:14:48;;;;;;;5.18;4.20;;;4.10;99.90;;;;;;4948644;29;20695;-62
2022/01/09 03:17:14;;;;;;;6.57;5.38;;;4.20;99.90;;;;;;4947808;29;20557;-63
2022/01/09 03:19:40;;;;;;;6.80;5.85;;;4.20;99.90;;;;;;4948089;29;20142;-63
2022/01/09 03:22:05;;;;;;;7.45;5.60;;;4.10;99.90;;;;;;4940605;29;20467;-62
2022/01/09 03:24:31;;;;;;;8.70;6.20;;;4.20;99.90;;;;;;4945820;29;20043;-64
2022/01/09 03:26:57;;;;;;;6.63;5.28;;;4.20;99.90;;;;;;4947740;29;20397;-64
2022/01/09 03:29:23;;;;;;;6.05;5.45;;;4.20;99.90;;;;;;4947870;29;20039;-63
2022/01/09 03:31:48;;;;;;;5.60;4.85;;;4.20;99.90;;;;;;4931904;29;20050;-64
2022/01/09 03:34:14;;;;;;;6.78;5.45;;;4.20;99.90;;;;;;4945884;28;20035;-64
2022/01/09 03:36:40;;;;;;;6.13;5.47;;;4.20;99.90;;;;;;4948135;28;20154;-64
2022/01/09 03:39:05;;;;;;;7.97;6.40;;;4.30;99.90;;;;;;4944290;29;20098;-64
2022/01/09 03:41:31;;;;;;;13.00;6.65;;;4.30;99.90;;;;;;4932267;29;20051;-64
2022/01/09 03:43:57;;;;;;;7.45;6.65;;;4.30;99.90;;;;;;4941256;29;20468;-64
2022/01/09 03:46:22;;;;;;;8.82;7.88;;;4.30;99.90;;;;;;4948351;28;20031;-63
2022/01/09 03:48:48;;;;;;;8.90;7.22;;;4.30;99.90;;;;;;4931732;29;20051;-64
2022/01/09 03:51:14;;;;;;;8.93;7.55;;;4.40;99.90;;;;;;4946496;29;20135;-64
2022/01/09 03:53:40;;;;;;;12.32;7.22;;;4.40;99.90;;;;;;4947870;29;20135;-64
2022/01/09 03:56:06;;;;;;;8.52;6.53;;;4.40;99.90;;;;;;4947796;29;20475;-64
2022/01/09 03:58:35;;;;;;;9.05;6.75;;;4.40;99.90;;;;;;4948576;28;20102;-64
2022/01/09 04:01:03;;;;;;;10.07;5.50;;;4.50;99.90;;;;;;4931591;29;20051;-64
2022/01/09 04:03:28;;;;;;;11.93;6.20;;;4.50;99.90;;;;;;4946165;28;20122;-63
2022/01/09 04:05:54;;;;;;;6.00;2.88;;;4.60;99.90;;;;;;4948822;29;20039;-64
2022/01/09 04:08:20;;;;;;;8.88;4.97;;;4.70;99.90;;;;;;4946844;28;20043;-64
2022/01/09 04:10:48;;;;;;;29.63;9.75;;;4.80;99.90;;;;;;4921579;29;20036;-64
2022/01/09 04:13:15;;;;;;;36.63;10.15;;;4.90;99.90;;;;;;4947302;29;20330;-64
2022/01/09 04:15:46;;;;;;;32.80;9.25;;;5.00;99.90;;;;;;4947841;29;20047;-64
2022/01/09 04:18:14;;;;;;;41.60;13.40;;;5.00;99.90;;;;;;4948132;29;20393;-64
2022/01/09 04:20:39;;;;;;;51.58;13.25;;;5.10;99.90;;;;;;4947298;28;20129;-64
2022/01/09 04:23:06;;;;;;;61.33;10.18;;;5.20;99.90;;;;;;4949206;28;20486;-64
2022/01/09 04:25:31;;;;;;;67.22;12.40;;;5.20;99.90;;;;;;4929811;29;20050;-64
2022/01/09 04:27:57;;;;;;;48.38;8.55;;;5.20;99.90;;;;;;4948558;29;20035;-64
2022/01/09 04:30:29;;;;;;;69.15;9.00;;;5.30;99.90;;;;;;4956376;28;20043;-64
2022/01/09 04:32:55;;;;;;;47.38;5.50;;;5.30;99.90;;;;;;4949865;28;20047;-64
2022/01/09 04:35:21;;;;;;;34.80;6.03;;;5.40;99.90;;;;;;4948068;29;20412;-64
2022/01/09 04:37:48;;;;;;;42.28;5.35;;;5.40;99.90;;;;;;4911510;29;20131;-64
2022/01/09 04:40:16;;;;;;;57.38;6.65;;;5.50;99.90;;;;;;4928385;29;20107;-64
2022/01/09 04:42:51;;;;;;;43.08;4.43;;;5.50;99.90;;;;;;4927946;29;20048;-64
2022/01/09 04:45:19;;;;;;;49.50;5.40;;;5.50;99.90;;;;;;4928925;29;20528;-64
2022/01/09 04:47:48;;;;;;;60.20;5.85;;;5.50;99.90;;;;;;4928623;29;20487;-64
2022/01/09 04:50:22;;;;;;;70.70;8.20;;;5.50;99.90;;;;;;4928166;29;20464;-64
2022/01/09 04:52:52;;;;;;;55.03;8.05;;;5.50;99.90;;;;;;4926672;29;20115;-64
2022/01/09 04:55:18;;;;;;;60.57;8.50;;;5.50;99.90;;;;;;4927862;29;20048;-64
2022/01/09 04:57:43;;;;;;;48.50;7.20;;;5.60;99.90;;;;;;4912288;29;20055;-64
2022/01/09 05:00:10;;;;;;;51.47;7.07;;;5.60;99.90;;;;;;4930882;29;20491;-64
2022/01/09 05:02:36;;;;;;;52.92;7.18;;;5.60;99.90;;;;;;4931930;29;20051;-64
2022/01/09 05:05:05;;;;;;;62.72;8.45;;;5.60;99.90;;;;;;4930609;29;20036;-64
2022/01/09 05:07:31;;;;;;;67.72;7.18;;;5.70;99.90;;;;;;4914934;29;20056;-64
2022/01/09 05:09:57;;;;;;;53.75;6.90;;;5.70;99.90;;;;;;4932716;29;20047;-64
2022/01/09 05:12:23;;;;;;;61.83;7.72;;;5.70;99.90;;;;;;4930620;29;20680;-64
2022/01/09 05:14:48;;;;;;;73.53;8.00;;;5.70;99.90;;;;;;4932472;29;20051;-64
2022/01/09 05:17:14;;;;;;;56.63;7.75;;;5.70;99.90;;;;;;4931143;29;20048;-64
2022/01/09 05:19:41;;;;;;;72.13;8.15;;;5.80;99.90;;;;;;4932475;29;20522;-64
2022/01/09 05:22:08;;;;;;;66.40;7.97;;;5.80;99.90;;;;;;4930871;29;20094;-64
2022/01/09 05:24:35;;;;;;;72.32;9.98;;;5.90;99.90;;;;;;4932114;29;20114;-64
2022/01/09 05:27:02;;;;;;;74.13;12.40;;;5.90;99.90;;;;;;4932163;29;20127;-64
2022/01/09 05:29:27;;;;;;;83.35;10.52;;;6.00;99.90;;;;;;4929481;29;20048;-64
2022/01/09 05:31:53;;;;;;;92.05;11.65;;;6.10;99.90;;;;;;4930810;29;20537;-64
2022/01/09 05:34:19;;;;;;;92.28;11.85;;;6.10;99.90;;;;;;4929775;29;20048;-64
2022/01/09 05:36:45;;;;;;;65.40;8.15;;;6.10;99.90;;;;;;4938789;29;20102;-64
2022/01/09 05:39:10;;;;;;;73.82;9.57;;;6.20;99.90;;;;;;4949852;29;20043;-64
2022/01/09 05:41:38;;;;;;;84.05;10.60;;;6.10;99.90;;;;;;4933917;29;20079;-64
2022/01/09 05:44:04;;;;;;;83.25;11.45;;;6.20;99.90;;;;;;4959501;28;20043;-64
2022/01/09 05:46:30;;;;;;;69.10;10.50;;;6.20;99.90;;;;;;4952667;28;20098;-64
2022/01/09 05:48:56;;;;;;;70.63;9.88;;;6.20;99.90;;;;;;4951064;29;20043;-64
2022/01/09 05:51:22;;;;;;;62.72;7.07;;;6.20;99.90;;;;;;4949363;29;20043;-64
2022/01/09 05:53:48;;;;;;;58.67;9.70;;;6.20;99.90;;;;;;4950820;28;20397;-64
2022/01/09 05:56:14;;;;;;;70.63;9.35;;;6.30;99.90;;;;;;4961360;28;20405;-64
2022/01/09 05:58:39;;;;;;;67.28;10.23;;;6.20;99.90;;;;;;4934500;29;20043;-64
2022/01/09 06:01:06;;;;;;;55.00;8.95;;;6.20;99.90;;;;;;4932823;29;20467;-64
2022/01/09 06:03:33;;;;;;;59.30;8.02;;;6.20;99.90;;;;;;4949985;29;20102;-64
2022/01/09 06:05:59;;;;;;;56.38;7.93;;;6.20;99.90;;;;;;4956899;28;20133;-64
2022/01/09 06:08:26;;;;;;;56.33;9.52;;;6.20;99.90;;;;;;4936306;29;20494;-64
2022/01/09 06:10:51;;;;;;;71.72;8.48;;;6.20;99.90;;;;;;4949714;28;20130;-64
2022/01/09 06:13:17;;;;;;;56.95;7.50;;;6.20;99.90;;;;;;4949422;29;20131;-65
2022/01/09 06:15:44;;;;;;;58.70;9.05;;;6.10;99.90;;;;;;4957804;28;20067;-64
2022/01/09 06:18:12;;;;;;;60.15;7.95;;;6.10;99.90;;;;;;4948943;29;20043;-64
2022/01/09 06:20:38;;;;;;;55.58;8.35;;;6.10;99.90;;;;;;4950269;29;20057;-64
2022/01/09 06:23:04;;;;;;;56.35;8.60;;;6.10;99.90;;;;;;4950156;29;20553;-64
2022/01/09 06:25:30;;;;;;;57.15;6.72;;;6.10;99.90;;;;;;4947142;28;20135;-64
2022/01/09 06:27:55;;;;;;;55.45;8.68;;;6.10;99.90;;;;;;4961150;28;20039;-64
2022/01/09 06:30:21;;;;;;;50.58;7.63;;;6.10;99.90;;;;;;4948502;28;20493;-64
2022/01/09 06:32:48;;;;;;;56.28;7.40;;;6.10;99.90;;;;;;4942683;28;20419;-65
2022/01/09 06:35:14;;;;;;;47.20;7.03;;;6.10;99.90;;;;;;4930551;29;20584;-64
2022/01/09 06:37:40;;;;;;;51.47;7.00;;;6.10;99.90;;;;;;4949738;29;20055;-64
2022/01/09 06:40:07;;;;;;;43.00;6.80;;;6.10;99.90;;;;;;4949496;29;20083;-64
2022/01/09 06:42:33;;;;;;;39.35;7.57;;;6.10;99.90;;;;;;4949062;29;20043;-65
2022/01/09 06:44:59;;;;;;;46.67;7.35;;;6.10;99.90;;;;;;4949869;29;20632;-64
2022/01/09 06:47:25;;;;;;;42.58;7.47;;;6.20;99.90;;;;;;4946391;29;20394;-64
2022/01/09 06:49:50;;;;;;;43.03;6.93;;;6.20;99.90;;;;;;4949934;29;20039;-64
2022/01/09 06:52:16;;;;;;;52.50;7.35;;;6.10;99.90;;;;;;4948643;29;20043;-64
2022/01/09 06:54:42;;;;;;;46.83;7.65;;;6.10;99.90;;;;;;4929546;29;20059;-64
2022/01/09 06:57:07;;;;;;;47.85;8.27;;;6.10;99.90;;;;;;4915354;29;20091;-64
2022/01/09 06:59:33;;;;;;;52.45;7.60;;;6.10;99.90;;;;;;4948892;29;20122;-64
2022/01/09 07:01:59;;;;;;;55.72;7.28;;;6.10;99.90;;;;;;4948943;29;20047;-64
2022/01/09 07:04:25;;;;;;;47.60;6.57;;;6.00;99.90;;;;;;4947664;29;20106;-64
2022/01/09 07:06:50;;;;;;;42.92;6.38;;;6.00;99.90;;;;;;4949485;29;20046;-64
2022/01/09 07:09:16;;;;;;;42.60;7.65;;;6.00;99.90;;;;;;4942740;29;20043;-64
2022/01/09 07:11:42;;;;;;;44.45;7.68;;;6.00;99.90;;;;;;4938601;29;20053;-64
2022/01/09 07:14:07;;;;;;;45.33;6.40;;;6.10;99.90;;;;;;4914662;29;20089;-64
2022/01/09 07:16:33;;;;;;;40.85;6.63;;;6.00;99.90;;;;;;4931906;29;20039;-65
2022/01/09 07:18:59;;;;;;;43.55;7.10;;;6.00;99.90;;;;;;4949197;29;20080;-65
2022/01/09 07:21:25;;;;;;;44.90;6.32;;;6.00;99.90;;;;;;4948125;28;20039;-64
2022/01/09 07:23:50;;;;;;;50.20;6.75;;;6.00;99.90;;;;;;4932047;29;20067;-64
2022/01/09 07:26:16;;;;;;;38.40;6.00;;;6.00;99.90;;;;;;4947560;29;20050;-64
2022/01/09 07:28:42;;;;;;;40.35;6.63;;;6.00;99.90;;;;;;4931868;29;20494;-64
2022/01/09 07:31:08;;;;;;;40.72;5.75;;;5.90;99.90;;;;;;4946606;29;20047;-64
2022/01/09 07:33:33;;;;;;;38.65;5.72;;;6.00;99.90;;;;;;4948639;29;20522;-64
2022/01/09 07:35:59;;;;;;;46.63;6.20;;;6.00;99.90;;;;;;4948055;29;20047;-64
2022/01/09 07:38:25;;;;;;;37.33;5.43;;;6.00;99.90;;;;;;4948444;29;20047;-64
2022/01/09 07:40:51;;;;;;;37.47;6.10;;;6.00;99.90;;;;;;4931355;29;20043;-64
2022/01/09 07:43:18;;;;;;;40.83;6.28;;;6.00;99.90;;;;;;4947692;29;20035;-64
2022/01/09 07:45:44;;;;;;;36.10;5.40;;;6.00;99.80;;;;;;4928679;29;20126;-64
2022/01/09 07:48:09;;;;;;;39.13;5.43;;;6.00;99.90;;;;;;4946616;29;20438;-64
2022/01/09 07:50:35;;;;;;;40.20;5.85;;;6.00;99.90;;;;;;4947163;29;20054;-64
2022/01/09 07:53:02;;;;;;;36.85;5.57;;;6.00;99.90;;;;;;4947761;29;20098;-64
2022/01/09 07:55:28;;;;;;;36.38;5.70;;;6.00;99.80;;;;;;4947687;29;20522;-64
2022/01/09 07:57:54;;;;;;;32.58;6.43;;;6.00;99.80;;;;;;4931560;29;20086;-64
2022/01/09 08:00:20;;;;;;;33.38;5.72;;;6.00;99.90;;;;;;4947198;29;20138;-65
2022/01/09 08:02:47;;;;;;;43.75;4.95;;;6.00;99.60;;;;;;4952085;28;20512;-64
2022/01/09 08:05:15;;;;;;;28.17;4.07;;;6.00;99.70;;;;;;4950215;28;20055;-65
2022/01/09 08:07:42;;;;;;;45.38;6.95;;;6.00;99.70;;;;;;4938689;28;20039;-64
2022/01/09 08:10:08;;;;;;;38.90;5.65;;;6.00;99.50;;;;;;4951840;28;20128;-64
2022/01/09 08:12:34;;;;;;;33.47;5.75;;;6.00;99.40;;;;;;4950418;28;20085;-64
2022/01/09 08:15:00;;;;;;;33.45;4.13;;;6.00;99.40;;;;;;4947847;29;20465;-64
2022/01/09 08:17:26;;;;;;;33.53;5.20;;;5.90;99.30;;;;;;4946502;29;20082;-64
2022/01/09 08:19:52;;;;;;;38.45;5.15;;;6.00;99.20;;;;;;4948262;29;20078;-64
2022/01/09 08:22:18;;;;;;;29.75;4.97;;;6.00;98.50;;;;;;4947364;29;20081;-64
2022/01/09 08:24:44;;;;;;;36.78;5.20;;;6.10;98.90;;;;;;4947778;29;20537;-64
2022/01/09 08:27:10;;;;;;;34.72;5.32;;;6.00;98.90;;;;;;4937414;29;20055;-64
2022/01/09 08:29:39;;;;;;;18.50;2.17;;;6.00;99.00;;;;;;4919502;29;20077;-64
2022/01/09 08:32:07;;;;;;;39.83;6.05;;;6.00;98.80;;;;;;4947425;28;20051;-64
2022/01/09 08:34:33;;;;;;;30.00;4.07;;;5.90;99.00;;;;;;4947228;28;20050;-64
2022/01/09 08:36:59;;;;;;;26.63;3.78;;;5.90;98.80;;;;;;4958141;28;20062;-64
2022/01/09 08:39:25;;;;;;;27.48;4.47;;;5.90;99.30;;;;;;4963908;28;20130;-64
2022/01/09 08:41:51;;;;;;;31.92;4.20;;;5.90;99.40;;;;;;4957765;28;20556;-64
2022/01/09 08:44:17;;;;;;;38.15;4.35;;;5.90;99.10;;;;;;4958178;28;20039;-64
2022/01/09 08:46:43;;;;;;;21.42;2.90;;;5.90;99.00;;;;;;4964760;28;20050;-64
2022/01/09 08:49:09;;;;;;;18.30;3.15;;;5.80;98.80;;;;;;4959993;28;20050;-64
2022/01/09 08:51:35;;;;;;;30.15;4.53;;;5.90;98.70;;;;;;4948023;28;20163;-64
2022/01/09 08:54:01;;;;;;;35.63;5.40;;;5.80;98.70;;;;;;4921799;28;20129;-64
2022/01/09 08:56:28;;;;;;;26.15;4.90;;;5.80;99.20;;;;;;4953588;28;20043;-64
2022/01/09 08:58:55;;;;;;;29.95;4.65;;;5.80;99.20;;;;;;4957627;28;20129;-64
2022/01/09 09:01:20;;;;;;;26.38;4.35;;;5.70;99.40;;;;;;4935265;29;20126;-64
2022/01/09 09:03:46;;;;;;;37.72;5.15;;;5.70;99.60;;;;;;4933441;29;20449;-64
2022/01/09 09:06:15;;;;;;;35.63;4.18;;;5.70;99.70;;;;;;4950541;28;20130;-64
2022/01/09 09:08:42;;;;;;;29.30;5.07;;;5.70;99.90;;;;;;4946676;28;20045;-64
2022/01/09 09:11:09;;;;;;;26.85;4.47;;;5.70;99.90;;;;;;4929019;29;20054;-64
2022/01/09 09:13:35;;;;;;;30.23;4.05;;;5.70;99.90;;;;;;4945966;29;20039;-65
2022/01/09 09:16:08;;;;;;;41.88;5.78;;;5.70;99.90;;;;;;4953596;28;20053;-64
2022/01/09 09:18:34;;;;;;;23.17;4.30;;;5.70;99.80;;;;;;4956865;28;21183;-65
2022/01/09 09:21:00;;;;;;;23.52;3.65;;;5.70;99.90;;;;;;4962452;28;21436;-64
2022/01/09 09:23:25;;;;;;;21.17;3.90;;;5.80;99.00;;;;;;4945907;29;20035;-64
2022/01/09 09:25:51;;;;;;;17.90;2.92;;;5.80;98.60;;;;;;4948197;28;20568;-65
2022/01/09 09:28:18;;;;;;;17.85;2.72;;;5.80;98.10;;;;;;4961278;28;20439;-65
2022/01/09 09:30:45;;;;;;;8.77;1.58;;;5.90;97.80;;;;;;4960362;28;20410;-64
2022/01/09 09:33:11;;;;;;;17.50;3.85;;;6.00;97.10;;;;;;4965903;28;20043;-64
2022/01/09 09:35:37;;;;;;;25.48;3.60;;;6.00;97.60;;;;;;4956109;28;20051;-64
2022/01/09 09:38:04;;;;;;;12.32;2.83;;;6.00;97.90;;;;;;4962846;28;20035;-64
2022/01/09 09:40:29;;;;;;;20.55;3.40;;;6.10;98.20;;;;;;4946974;28;20048;-64
2022/01/09 09:42:56;;;;;;;19.48;3.25;;;6.10;97.40;;;;;;4947221;28;20399;-64
2022/01/09 09:45:23;;;;;;;22.48;3.30;;;6.20;96.70;;;;;;4950626;28;20047;-64
2022/01/09 09:47:50;;;;;;;19.20;2.53;;;6.30;96.90;;;;;;4960831;28;20219;-65
2022/01/09 09:50:17;;;;;;;11.60;1.65;;;6.30;96.40;;;;;;4936543;28;20513;-64
2022/01/09 09:52:45;;;;;;;17.25;2.83;;;6.20;97.00;;;;;;4953900;28;20039;-64
2022/01/09 09:55:11;;;;;;;30.45;3.47;;;6.20;97.30;;;;;;4954712;28;20034;-64
2022/01/09 09:57:38;;;;;;;29.38;4.45;;;6.20;97.80;;;;;;4931513;29;20440;-64
2022/01/09 10:00:06;;;;;;;34.22;4.97;;;6.10;98.50;;;;;;4952770;28;20047;-64
2022/01/09 10:02:52;;;;;;;25.65;3.97;;;6.10;98.80;;;;;;4949486;28;20094;-65
2022/01/09 10:05:22;;;;;;;26.50;3.78;;;6.10;98.90;;;;;;4963575;28;20556;-65
2022/01/09 10:07:48;;;;;;;30.75;4.20;;;6.10;98.80;;;;;;4938846;29;20039;-64
2022/01/09 10:10:18;;;;;;;33.88;4.03;;;6.10;99.30;;;;;;4935486;29;20055;-64
2022/01/09 10:12:47;;;;;;;14.57;2.35;;;6.10;98.80;;;;;;4949715;29;20079;-64
2022/01/09 10:15:17;;;;;;;14.02;2.60;;;6.10;98.60;;;;;;4949091;28;20098;-64
2022/01/09 10:17:46;;;;;;;15.40;2.97;;;6.20;98.10;;;;;;4949225;28;20524;-64
2022/01/09 10:20:20;;;;;;;16.13;2.60;;;6.20;98.50;;;;;;4951718;28;20119;-64
2022/01/09 10:22:48;;;;;;;17.27;2.35;;;6.20;98.30;;;;;;4948595;29;20459;-64
2022/01/09 10:25:36;;;;;;;12.05;2.80;;;6.30;98.20;;;;;;4950179;29;20078;-64
2022/01/09 10:28:02;;;;;;;22.73;4.15;;;6.30;97.70;;;;;;4950050;28;20405;-64
2022/01/09 10:30:34;;;;;;;16.90;3.17;;;6.40;98.00;;;;;;4932119;29;20043;-65
2022/01/09 10:33:04;;;;;;;25.58;3.97;;;6.40;98.10;;;;;;4948215;28;20039;-64
2022/01/09 10:35:33;;;;;;;21.30;2.47;;;6.40;97.90;;;;;;4952060;28;20047;-64
2022/01/09 10:38:14;;;;;;;23.98;2.67;;;6.40;97.80;;;;;;4913312;29;20537;-64
2022/01/09 10:40:43;;;;;;;12.40;2.15;;;6.40;97.60;;;;;;4928224;29;20035;-64
2022/01/09 10:43:18;;;;;;;19.48;1.90;;;6.40;97.40;;;;;;4930141;29;20498;-65
2022/01/09 10:45:49;;;;;;;23.17;3.58;;;6.40;97.10;;;;;;4917023;29;20079;-64
2022/01/09 10:48:19;;;;;;;;;;;6.50;97.80;;;;;;4928733;29;20070;-64
2022/01/09 10:50:45;;;;;;;21.08;2.72;;;6.50;96.90;;;;;;4929840;29;19927;-65
2022/01/09 10:53:14;;;;;;;18.05;3.60;;;6.50;97.00;;;;;;4923878;29;20125;-64
2022/01/09 10:55:40;;;;;;;22.13;4.07;;;6.60;96.50;;;;;;4906970;29;20047;-64
2022/01/09 10:58:20;;;;;;;22.40;2.92;;;6.60;97.30;;;;;;4916884;29;20043;-64
2022/01/09 11:00:46;;;;;;;23.77;3.85;;;6.60;97.30;;;;;;4930294;29;20051;-64
2022/01/09 11:03:13;;;;;;;19.27;3.33;;;6.60;97.70;;;;;;4924823;29;20158;-64
2022/01/09 11:05:39;;;;;;;30.50;4.75;;;6.70;97.60;;;;;;4924591;29;20055;-64
2022/01/09 11:08:06;;;;;;;15.52;2.15;;;6.70;96.80;;;;;;4928946;29;20048;-64
2022/01/09 11:10:33;;;;;;;13.43;2.17;;;6.70;97.20;;;;;;4900056;29;20392;-64
2022/01/09 11:13:01;;;;;;;24.02;3.95;;;6.80;97.30;;;;;;4929646;29;20043;-64
2022/01/09 11:15:29;;;;;;;15.77;2.10;;;6.80;96.50;;;;;;4928477;29;20054;-64
2022/01/09 11:17:59;;;;;;;18.48;3.20;;;6.90;96.90;;;;;;4928265;29;20043;-64
2022/01/09 11:20:25;;;;;;;21.17;4.03;;;7.00;96.10;;;;;;4926862;29;20505;-65
2022/01/09 11:22:55;;;;;;;14.15;1.67;;;7.00;97.10;;;;;;4928819;29;20048;-64
2022/01/09 11:25:43;;;;;;;15.20;2.78;;;6.90;96.50;;;;;;4922515;29;20054;-64
2022/01/09 11:28:22;;;;;;;21.10;3.55;;;6.90;96.00;;;;;;4924605;29;20505;-64
2022/01/09 11:30:55;;;;;;;28.85;3.60;;;6.90;95.90;;;;;;4927368;29;20048;-64
2022/01/09 11:33:36;;;;;;;19.73;3.67;;;6.90;96.70;;;;;;4928892;29;20043;-64
2022/01/09 11:36:17;;;;;;;10.98;2.35;;;6.90;96.40;;;;;;4916332;29;20522;-64
2022/01/09 11:39:13;;;;;;;24.55;3.42;;;6.90;96.30;;;;;;4929819;29;20364;-64
2022/01/09 11:41:44;;;;;;;16.55;2.63;;;6.90;96.20;;;;;;4931713;29;20494;-64
2022/01/09 11:44:14;;;;;;;10.27;1.35;;;6.80;95.80;;;;;;4934849;29;20162;-64
2022/01/09 11:47:01;;;;;;;14.82;1.92;;;6.80;95.90;;;;;;4930186;29;20056;-64
2022/01/09 11:49:39;;;;;;;20.92;3.42;;;6.70;95.40;;;;;;4928417;29;20043;-64
2022/01/09 11:52:06;;;;;;;8.75;1.67;;;6.70;96.20;;;;;;4924809;29;20052;-64
2022/01/09 11:54:54;;;;;;;10.43;1.60;;;6.70;95.50;;;;;;4931552;29;20059;-65
2022/01/09 11:57:47;;;;;;;18.48;2.78;;;6.70;96.20;;;;;;4929830;29;20537;-64
2022/01/09 12:00:30;;;;;;;21.55;2.97;;;6.70;96.60;;;;;;4928535;29;20040;-64
2022/01/09 12:02:57;;;;;;;21.40;3.35;;;6.70;96.90;;;;;;4928676;29;20055;-64
2022/01/09 12:05:22;;;;;;;13.40;3.10;;;6.80;96.90;;;;;;4927906;29;20098;-64
2022/01/09 12:07:48;;;;;;;29.55;3.05;;;6.80;96.00;;;;;;4919928;29;20063;-64
2022/01/09 12:10:36;;;;;;;17.05;2.65;;;6.90;96.90;;;;;;4932680;29;20051;-64
2022/01/09 12:13:05;;;;;;;23.23;2.67;;;7.00;95.50;;;;;;4928673;29;20086;-64
2022/01/09 12:15:39;;;;;;;29.48;3.78;;;7.10;97.30;;;;;;4941082;29;20051;-64
2022/01/09 12:18:08;;;;;;;11.00;2.15;;;7.10;97.00;;;;;;4899491;29;20130;-64
2022/01/09 12:20:40;;;;;;;13.40;1.63;;;7.20;96.10;;;;;;4928318;29;20112;-64
2022/01/09 12:23:07;;;;;;;23.10;3.05;;;7.20;95.50;;;;;;4926766;29;20082;-63
2022/01/09 12:25:33;;;;;;;17.98;2.45;;;7.20;95.40;;;;;;4911567;29;20055;-63
2022/01/09 12:28:14;;;;;;;12.38;1.80;;;7.20;96.10;;;;;;4927199;29;20070;-63
2022/01/09 12:30:41;;;;;;;15.27;2.30;;;7.30;95.30;;;;;;4912540;29;20043;-63
2022/01/09 12:33:10;;;;;;;23.75;4.45;;;7.30;95.70;;;;;;4925878;29;20483;-64
2022/01/09 12:35:56;;;;;;;16.77;2.15;;;7.30;95.70;;;;;;4928794;29;20040;-63
2022/01/09 12:38:24;;;;;;;14.35;2.05;;;7.30;95.50;;;;;;4929247;28;20445;-64
2022/01/09 12:40:57;;;;;;;16.27;1.60;;;7.20;95.90;;;;;;4946906;29;20055;-64
2022/01/09 12:43:25;;;;;;;24.77;2.05;;;7.30;96.30;;;;;;4947719;29;20046;-64
2022/01/09 12:45:52;;;;;;;33.60;4.72;;;7.20;96.20;;;;;;4952061;28;20485;-64
2022/01/09 12:48:20;;;;;;;16.40;2.25;;;7.20;96.10;;;;;;4950617;28;20443;-64
2022/01/09 12:50:49;;;;;;;22.00;2.90;;;7.20;95.50;;;;;;4946174;28;20059;-64
2022/01/09 12:53:15;;;;;;;13.65;3.88;;;7.20;96.00;;;;;;4948250;28;20044;-64